Time;durP1;ratioP1;P1;durP2;ratioP2;P2;SDS_P1;SDS_P2;PMS_P1;PMS_P2;Temp;Humidity;BMP_temperature;BMP_pressure;BME280_temperature;BME280_humidity;BME280_pressure;Samples;Min_cycle;Max_cycle;Signal;HPM_P1;HPM_P2
2022/11/22 00:00:42;;;;;;;;;;;;;;;4.73;75.16;99684.88;4849791;29;4733;-78
2022/11/22 00:03:09;;;;;;;;;;;;;;;4.73;75.34;99686.72;4839483;29;4668;-77
2022/11/22 00:05:35;;;;;;;;;;;;;;;4.73;75.09;99687.53;4852049;29;4597;-80
2022/11/22 00:08:02;;;;;;;;;;;;;;;4.73;75.16;99692.06;4838281;29;4527;-79
2022/11/22 00:10:28;;;;;;;;;;;;;;;4.72;75.24;99699.25;4832634;29;4708;-79
2022/11/22 00:12:55;;;;;;;;;;;;;;;4.73;75.17;99692.88;4854169;29;4611;-78
2022/11/22 00:15:21;;;;;;;;;;;;;;;4.71;75.31;99689.59;4850300;29;4654;-79
2022/11/22 00:17:48;;;;;;;;;;;;;;;4.73;75.10;99687.53;4837850;29;4649;-80
2022/11/22 00:20:14;;;;;;;;;;;;;;;4.73;75.33;99679.53;4852994;29;4514;-80
2022/11/22 00:22:41;;;;;;;;;;;;;;;4.74;75.17;99678.53;4855259;29;4592;-80
2022/11/22 00:25:07;;;;;;;;;;;;;;;4.74;75.28;99672.38;4832532;29;4590;-80
2022/11/22 00:27:34;;;;;;;;;;;;;;;4.74;75.24;99672.38;4848370;29;4603;-80
2022/11/22 00:30:00;;;;;;;;;;;;;;;4.73;75.17;99668.84;4851541;29;4429;-79
2022/11/22 00:32:27;;;;;;;;;;;;;;;4.72;75.37;99669.91;4860635;29;4531;-78
2022/11/22 00:34:54;;;;;;;;;;;;;;;4.72;75.35;99664.56;4842724;29;4645;-80
2022/11/22 00:37:20;;;;;;;;;;;;;;;4.71;75.48;99665.59;4863120;29;4569;-79
2022/11/22 00:39:47;;;;;;;;;;;;;;;4.71;75.65;99667.44;4861839;29;4557;-80
2022/11/22 00:42:13;;;;;;;;;;;;;;;4.68;75.54;99659.84;4862770;29;4129;-79
2022/11/22 00:44:40;;;;;;;;;;;;;;;4.71;75.44;99662.09;4853491;29;4756;-80
2022/11/22 00:47:06;;;;;;;;;;;;;;;4.70;75.40;99644.44;4852117;29;4579;-79
2022/11/22 04:07:43;;;;;;;;;;;;;;;4.75;75.40;99593.97;4877772;29;4651;-80
2022/11/22 04:10:10;;;;;;;;;;;;;;;4.72;75.42;99586.38;4876430;29;4650;-80
2022/11/22 04:12:36;;;;;;;;;;;;;;;4.70;75.35;99589.25;4865651;29;4541;-80
2022/11/22 04:15:05;;;;;;;;;;;;;;;4.70;75.56;99591.09;4868849;29;4579;-78
2022/11/22 04:17:43;;;;;;;;;;;;;;;4.69;75.66;99589.47;4879192;29;4522;-79
2022/11/22 04:22:54;;;;;;;;;;;;;;;4.71;75.54;99587.41;4876882;29;4740;-78
2022/11/22 04:25:21;;;;;;;;;;;;;;;4.71;75.36;99577.56;4866637;29;4740;-79
2022/11/22 04:27:47;;;;;;;;;;;;;;;4.72;75.49;99579.19;4878299;29;4551;-80
2022/11/22 04:30:14;;;;;;;;;;;;;;;4.71;75.52;99579.41;4857879;29;4574;-79
2022/11/22 04:32:45;;;;;;;;;;;;;;;4.69;75.56;99578.78;4876644;29;4545;-80
2022/11/22 04:35:12;;;;;;;;;;;;;;;4.70;75.62;99578.56;4874500;29;4758;-79
2022/11/22 04:37:39;;;;;;;;;;;;;;;4.68;75.56;99577.16;4859031;29;4460;-78
2022/11/22 04:40:06;;;;;;;;;;;;;;;4.69;75.56;99574.28;4864518;29;4445;-78
2022/11/22 04:45:17;;;;;;;;;;;;;;;4.70;75.55;99578.56;4877250;29;5037;-80
2022/11/22 04:53:11;;;;;;;;;;;;;;;4.72;75.57;99581.06;4874082;29;5123;-79
2022/11/22 04:55:38;;;;;;;;;;;;;;;4.70;75.66;99586.56;4859337;29;4340;-79
2022/11/22 04:58:04;;;;;;;;;;;;;;;4.71;75.55;99579.41;4873411;29;4561;-77
2022/11/22 05:00:31;;;;;;;;;;;;;;;4.71;75.44;99588.22;4862537;29;5079;-79
2022/11/22 05:02:57;;;;;;;;;;;;;;;4.71;75.43;99580.22;4876095;29;4582;-79
2022/11/22 05:05:24;;;;;;;;;;;;;;;4.72;75.32;99581.88;4869584;29;4710;-78
2022/11/22 05:07:51;;;;;;;;;;;;;;;4.70;75.61;99583.91;4893181;29;2185;-79
2022/11/22 05:10:17;;;;;;;;;;;;;;;4.72;75.33;99587.19;4908877;29;3622;-78
2022/11/22 05:12:44;;;;;;;;;;;;;;;4.75;75.48;99588.63;4893977;29;1977;-78
2022/11/22 05:15:10;;;;;;;;;;;;;;;4.72;75.33;99581.06;4893438;29;2191;-79
2022/11/22 05:17:37;;;;;;;;;;;;;;;4.71;75.30;99577.56;4890333;29;2119;-80
2022/11/22 05:20:03;;;;;;;;;;;;;;;4.73;75.22;99578.16;4891727;29;2046;-79
2022/11/22 05:25:10;;;;;;;;;;;;;;;4.73;75.22;99569.34;4866079;29;1208;-79
2022/11/22 05:27:37;;;;;;;;;;;;;;;4.70;75.35;99573.25;4902889;29;2037;-78
2022/11/22 05:30:03;;;;;;;;;;;;;;;4.71;75.56;99579.41;4900671;29;2287;-79
2022/11/22 05:32:30;;;;;;;;;;;;;;;4.69;75.72;99589.47;4900271;29;2132;-78
2022/11/22 05:34:57;;;;;;;;;;;;;;;4.69;75.50;99586.78;4901356;29;1967;-79
2022/11/22 05:37:23;;;;;;;;;;;;;;;4.73;75.30;99585.34;4893325;29;2507;-79
2022/11/22 05:39:50;;;;;;;;;;;;;;;4.72;75.48;99584.53;4881787;29;3730;-79
2022/11/22 05:42:16;;;;;;;;;;;;;;;4.69;75.49;99589.47;4876981;29;4668;-79
2022/11/22 05:44:43;;;;;;;;;;;;;;;4.73;75.47;99596.84;4878249;29;4970;-79
2022/11/22 05:47:09;;;;;;;;;;;;;;;4.72;75.61;99597.06;4861836;29;4662;-79
2022/11/22 05:49:36;;;;;;;;;;;;;;;4.72;75.50;99592.53;4878754;29;4418;-79
2022/11/22 05:52:02;;;;;;;;;;;;;;;4.71;75.59;99600.75;4878244;29;4626;-79
2022/11/22 05:54:29;;;;;;;;;;;;;;;4.74;75.45;99597.69;4880140;29;4612;-79
2022/11/22 05:56:56;;;;;;;;;;;;;;;4.71;75.62;99598.91;4858185;29;4647;-79
2022/11/22 05:59:22;;;;;;;;;;;;;;;4.70;75.61;99604.44;4864264;29;4615;-79
2022/11/22 06:01:48;;;;;;;;;;;;;;;4.68;75.71;99599.31;4876536;29;4338;-80
2022/11/22 06:04:15;;;;;;;;;;;;;;;4.68;75.71;99595.84;4868408;29;4677;-82
2022/11/22 06:06:41;;;;;;;;;;;;;;;4.70;75.65;99613.25;4862650;29;4887;-79
2022/11/22 06:09:08;;;;;;;;;;;;;;;4.70;75.68;99607.09;4864995;29;4618;-79
2022/11/22 06:11:35;;;;;;;;;;;;;;;4.69;75.63;99603.63;4860622;29;4724;-78
2022/11/22 06:14:02;;;;;;;;;;;;;;;4.70;75.54;99607.09;4859002;29;4660;-79
2022/11/22 06:16:28;;;;;;;;;;;;;;;4.71;75.58;99617.56;4858059;29;4565;-79
2022/11/22 06:18:55;;;;;;;;;;;;;;;4.71;75.53;99625.59;4861554;29;4714;-79
2022/11/22 06:21:22;;;;;;;;;;;;;;;4.71;75.73;99624.75;4864369;29;4786;-78
2022/11/22 06:23:49;;;;;;;;;;;;;;;4.68;75.68;99627.84;4875681;29;4721;-79
2022/11/22 06:26:15;;;;;;;;;;;;;;;4.68;75.74;99626.00;4860694;29;5215;-79
2022/11/22 06:28:42;;;;;;;;;;;;;;;4.68;75.66;99631.31;4875806;29;4696;-79
2022/11/22 06:31:08;;;;;;;;;;;;;;;4.68;75.67;99635.84;4875775;29;4721;-79
2022/11/22 06:33:35;;;;;;;;;;;;;;;4.36;75.48;99581.44;4859563;29;4678;-79
2022/11/22 06:36:02;;;;;;;;;;;;;;;4.70;75.58;99650.59;4877465;29;5026;-79
2022/11/22 06:38:28;;;;;;;;;;;;;;;4.70;75.35;99634.59;4858544;29;4737;-80
2022/11/22 06:40:55;;;;;;;;;;;;;;;4.67;75.74;99639.53;4864424;29;4701;-79
2022/11/22 06:43:21;;;;;;;;;;;;;;;4.66;75.69;99637.88;4865220;29;4746;-79
2022/11/22 06:45:51;;;;;;;;;;;;;;;4.72;75.62;99645.06;4875485;29;4751;-79
2022/11/22 06:48:18;;;;;;;;;;;;;;;4.72;75.73;99647.75;4863309;29;4726;-79
2022/11/22 06:50:44;;;;;;;;;;;;;;;4.71;75.46;99659.44;4880170;29;4465;-79
2022/11/22 06:53:11;;;;;;;;;;;;;;;4.74;75.74;99662.53;4859278;29;4834;-78
2022/11/22 06:55:37;;;;;;;;;;;;;;;4.72;75.54;99661.91;4874829;29;4679;-78
2022/11/22 06:58:04;;;;;;;;;;;;;;;4.73;75.65;99657.38;4860234;29;4674;-77
2022/11/22 07:00:31;;;;;;;;;;;;;;;4.72;75.66;99663.75;4856568;29;4574;-79
2022/11/22 07:02:57;;;;;;;;;;;;;;;4.73;75.31;99662.72;4874027;29;4773;-78
2022/11/22 07:05:24;;;;;;;;;;;;;;;4.73;75.56;99674.19;4854764;29;4908;-77
2022/11/22 07:07:50;;;;;;;;;;;;;;;4.72;75.60;99679.75;4857039;29;4745;-79
2022/11/22 07:10:17;;;;;;;;;;;;;;;4.69;75.68;99674.81;4880663;29;4848;-78
2022/11/22 07:12:43;;;;;;;;;;;;;;;4.74;75.56;99686.53;4857096;29;4957;-78
2022/11/22 07:15:10;;;;;;;;;;;;;;;4.71;75.69;99689.59;4875540;29;4722;-79
2022/11/22 07:17:36;;;;;;;;;;;;;;;4.72;75.47;99685.91;4861521;29;4849;-80
2022/11/22 07:20:03;;;;;;;;;;;;;;;4.72;75.52;99685.91;4852869;29;4723;-79
2022/11/22 07:22:29;;;;;;;;;;;;;;;4.75;75.31;99688.16;4868015;29;4654;-79
2022/11/22 07:24:56;;;;;;;;;;;;;;;4.73;75.58;99689.38;4858101;29;4738;-78
2022/11/22 07:27:22;;;;;;;;;;;;;;;4.73;75.65;99694.72;4864871;29;4831;-78
2022/11/22 07:29:49;;;;;;;;;;;;;;;4.74;75.65;99694.53;4848787;29;4676;-78
2022/11/22 07:32:15;;;;;;;;;;;;;;;4.73;75.44;99703.53;4851307;29;4645;-77
2022/11/22 07:34:42;;;;;;;;;;;;;;;4.76;75.36;99710.31;4871563;29;4670;-79
2022/11/22 07:37:09;;;;;;;;;;;;;;;4.75;75.48;99714.03;4865938;29;4794;-79
2022/11/22 07:39:36;;;;;;;;;;;;;;;4.78;75.49;99713.63;4850172;29;4714;-80
2022/11/22 07:42:02;;;;;;;;;;;;;;;4.76;75.42;99711.16;4852395;29;4703;-80
2022/11/22 07:44:29;;;;;;;;;;;;;;;4.76;75.38;99718.31;4865096;29;4859;-80
2022/11/22 07:46:55;;;;;;;;;;;;;;;4.77;75.43;99715.47;4850360;29;4776;-79
2022/11/22 07:49:22;;;;;;;;;;;;;;;4.78;75.38;99722.44;4867101;29;4722;-79
2022/11/22 07:51:49;;;;;;;;;;;;;;;4.79;75.43;99720.59;4868501;29;4695;-78
2022/11/22 07:54:15;;;;;;;;;;;;;;;4.86;75.19;99723.28;4852292;29;5248;-78
2022/11/22 07:56:41;;;;;;;;;;;;;;;4.80;75.37;99724.09;4866616;29;4946;-80
2022/11/22 07:59:08;;;;;;;;;;;;;;;4.84;75.46;99725.31;4866577;29;4702;-81
2022/11/22 08:01:35;;;;;;;;;;;;;;;4.83;75.16;99727.19;4852343;29;4647;-79
2022/11/22 08:04:01;;;;;;;;;;;;;;;4.83;75.18;99735.19;4869750;29;4857;-79
2022/11/22 08:06:28;;;;;;;;;;;;;;;4.85;75.13;99734.97;4867873;29;4874;-79
2022/11/22 08:08:54;;;;;;;;;;;;;;;4.88;75.20;99730.06;4872975;29;4639;-80
2022/11/22 08:11:21;;;;;;;;;;;;;;;4.88;74.91;99727.41;4875221;29;4724;-77
2022/11/22 08:13:47;;;;;;;;;;;;;;;4.89;74.85;99726.38;4859913;29;5271;-80
2022/11/22 08:16:14;;;;;;;;;;;;;;;4.89;75.06;99730.88;4883172;29;4706;-80
2022/11/22 08:18:40;;;;;;;;;;;;;;;4.88;75.10;99726.56;4874228;29;4745;-79
2022/11/22 08:21:07;;;;;;;;;;;;;;;4.93;74.92;99734.78;4872860;29;4520;-79
2022/11/22 08:23:33;;;;;;;;;;;;;;;4.99;74.80;99742.78;4869389;29;4691;-80
2022/11/22 08:26:00;;;;;;;;;;;;;;;4.94;74.85;99745.28;4876823;29;4708;-78
2022/11/22 08:28:27;;;;;;;;;;;;;;;4.93;75.06;99750.78;4877927;29;4631;-80
2022/11/22 08:30:53;;;;;;;;;;;;;;;4.99;74.80;99753.47;4875530;29;4702;-80
2022/11/22 08:33:20;;;;;;;;;;;;;;;5.03;74.59;99745.06;4878367;29;4579;-77
2022/11/22 08:35:46;;;;;;;;;;;;;;;5.00;74.70;99748.97;4871611;29;4771;-79
2022/11/22 08:38:13;;;;;;;;;;;;;;;5.00;74.50;99757.81;4871691;29;4769;-78
2022/11/22 08:40:39;;;;;;;;;;;;;;;4.97;74.75;99758.22;4873829;29;4669;-80
2022/11/22 08:43:06;;;;;;;;;;;;;;;4.94;74.95;99761.28;4872903;29;5315;-79
2022/11/22 08:45:32;;;;;;;;;;;;;;;5.07;74.48;99773.00;4875163;29;4697;-79
2022/11/22 08:47:59;;;;;;;;;;;;;;;5.11;74.24;99775.03;4871946;29;4666;-80
2022/11/22 08:50:25;;;;;;;;;;;;;;;5.06;74.76;99782.00;4861158;29;4228;-79
2022/11/22 08:52:53;;;;;;;;;;;;;;;5.05;74.58;99791.88;4858147;29;4649;-79
2022/11/22 08:55:20;;;;;;;;;;;;;;;5.09;74.45;99797.63;4875623;29;4688;-77
2022/11/22 08:57:46;;;;;;;;;;;;;;;5.25;74.13;99791.91;4868910;29;4776;-81
2022/11/22 09:00:13;;;;;;;;;;;;;;;5.12;74.53;99797.25;4855670;29;4697;-78
2022/11/22 09:02:39;;;;;;;;;;;;;;;5.09;74.57;99805.63;4872172;29;4806;-79
2022/11/22 09:05:06;;;;;;;;;;;;;;;5.14;74.54;99804.00;4861063;29;5196;-80
2022/11/22 09:07:32;;;;;;;;;;;;;;;5.25;74.08;99799.94;4857451;29;4631;-80
2022/11/22 09:09:59;;;;;;;;;;;;;;;5.14;74.40;99803.19;4872828;29;4986;-77
2022/11/22 09:12:25;;;;;;;;;;;;;;;5.20;74.20;99810.38;4855514;29;5078;-79
2022/11/22 09:14:52;;;;;;;;;;;;;;;5.21;74.09;99815.53;4862149;29;4740;-79
2022/11/22 09:17:18;;;;;;;;;;;;;;;5.23;74.18;99804.63;4875235;29;4631;-79
2022/11/22 09:19:45;;;;;;;;;;;;;;;5.16;74.31;99807.31;4874798;29;4697;-78
2022/11/22 09:22:12;;;;;;;;;;;;;;;5.33;73.90;99806.94;4858452;29;4644;-79
2022/11/22 09:24:38;;;;;;;;;;;;;;;5.33;73.90;99807.75;4875237;29;4614;-79
2022/11/22 09:27:07;;;;;;;;;;;;;;;5.27;73.99;99813.91;4859520;29;4730;-79
2022/11/22 09:29:33;;;;;;;;;;;;;;;5.35;73.85;99818.22;4860778;29;4770;-78
2022/11/22 09:32:00;;;;;;;;;;;;;;;5.27;74.04;99819.25;4857531;29;4923;-80
2022/11/22 09:34:26;;;;;;;;;;;;;;;5.23;74.04;99813.50;4875229;29;5010;-79
2022/11/22 09:36:53;;;;;;;;;;;;;;;5.44;73.75;99819.66;4871907;29;4662;-81
2022/11/22 09:39:19;;;;;;;;;;;;;;;5.34;73.91;99821.91;4860036;29;4675;-79
2022/11/22 09:41:46;;;;;;;;;;;;;;;5.55;73.09;99823.56;4870172;29;4698;-79
2022/11/22 09:44:12;;;;;;;;;;;;;;;5.40;73.54;99823.78;4857641;29;4649;-79
2022/11/22 09:46:39;;;;;;;;;;;;;;;5.41;73.82;99838.75;4873848;29;4556;-78
2022/11/22 09:49:05;;;;;;;;;;;;;;;5.40;73.67;99851.28;4873679;29;4698;-78
2022/11/22 09:51:32;;;;;;;;;;;;;;;5.45;73.57;99840.84;4858020;29;4645;-81
2022/11/22 09:53:58;;;;;;;;;;;;;;;5.42;73.71;99843.91;4873264;29;4804;-79
2022/11/22 09:56:25;;;;;;;;;;;;;;;5.39;73.68;99855.00;4873746;29;4828;-79
2022/11/22 09:58:51;;;;;;;;;;;;;;;5.50;73.54;99850.06;4858081;29;4620;-78
2022/11/22 10:01:18;;;;;;;;;;;;;;;5.50;73.43;99858.09;4873944;29;4754;-78
2022/11/22 10:03:44;;;;;;;;;;;;;;;5.38;73.82;99857.84;4868303;29;4698;-80
2022/11/22 10:06:11;;;;;;;;;;;;;;;5.38;73.79;99852.53;4870161;29;4679;-80
2022/11/22 10:08:37;;;;;;;;;;;;;;;5.57;73.14;99851.75;4876762;29;4556;-79
2022/11/22 10:11:04;;;;;;;;;;;;;;;5.44;73.59;99846.38;4861558;29;4702;-79
2022/11/22 10:13:31;;;;;;;;;;;;;;;5.57;73.20;99857.09;4876471;29;4743;-80
2022/11/22 10:15:57;;;;;;;;;;;;;;;5.46;73.60;99866.50;4873806;29;4698;-80
2022/11/22 10:18:24;;;;;;;;;;;;;;;5.43;73.73;99858.91;4874305;29;4790;-79
2022/11/22 10:20:50;;;;;;;;;;;;;;;5.39;74.07;99857.66;4873564;29;4612;-80
2022/11/22 10:23:17;;;;;;;;;;;;;;;5.50;73.56;99856.25;4873464;29;4635;-79
2022/11/22 10:25:43;;;;;;;;;;;;;;;5.44;73.82;99857.03;4878258;29;4567;-79
2022/11/22 10:28:10;;;;;;;;;;;;;;;5.41;74.00;99865.47;4874854;29;4844;-80
2022/11/22 10:30:36;;;;;;;;;;;;;;;5.53;73.38;99863.03;4876315;29;4706;-79
2022/11/22 10:33:03;;;;;;;;;;;;;;;5.40;73.76;99866.50;4876714;29;4695;-79
2022/11/22 10:35:30;;;;;;;;;;;;;;;5.43;73.74;99866.91;4863517;29;4690;-80
2022/11/22 10:37:56;;;;;;;;;;;;;;;5.51;73.66;99875.78;4875822;29;4714;-80
2022/11/22 10:40:23;;;;;;;;;;;;;;;5.44;73.83;99873.91;4859737;29;4754;-81
2022/11/22 10:42:49;;;;;;;;;;;;;;;5.41;74.06;99881.50;4862205;29;4709;-80
2022/11/22 10:45:16;;;;;;;;;;;;;;;5.40;73.99;99882.53;4873439;29;4678;-79
2022/11/22 10:47:42;;;;;;;;;;;;;;;5.41;73.76;99885.00;4876841;29;4643;-78
2022/11/22 10:50:09;;;;;;;;;;;;;;;5.52;73.85;99896.09;4875179;29;4734;-79
2022/11/22 10:52:35;;;;;;;;;;;;;;;5.49;73.84;99905.34;4872590;29;4709;-78
2022/11/22 10:55:02;;;;;;;;;;;;;;;5.43;74.11;99892.81;4874418;29;4733;-78
2022/11/22 10:57:28;;;;;;;;;;;;;;;5.42;74.03;99883.97;4860083;29;4620;-81
2022/11/22 10:59:55;;;;;;;;;;;;;;;5.34;74.16;99878.81;4874254;29;4757;-80
2022/11/22 11:02:22;;;;;;;;;;;;;;;5.49;73.87;99883.16;4873994;29;4966;-80
2022/11/22 11:04:48;;;;;;;;;;;;;;;5.40;74.28;99879.84;4870410;29;4693;-79
2022/11/22 11:07:15;;;;;;;;;;;;;;;5.42;73.91;99891.16;4874567;29;4750;-79
2022/11/22 11:09:41;;;;;;;;;;;;;;;5.49;73.77;99885.81;4875561;29;4697;-79
2022/11/22 11:12:08;;;;;;;;;;;;;;;5.48;74.03;99893.03;4875310;29;4631;-81
2022/11/22 11:14:34;;;;;;;;;;;;;;;5.40;74.36;99906.56;4874861;29;4710;-80
2022/11/22 11:17:01;;;;;;;;;;;;;;;5.34;74.75;99912.72;4876888;29;4702;-80
2022/11/22 11:19:28;;;;;;;;;;;;;;;5.40;74.19;99906.56;4876746;29;4751;-79
2022/11/22 11:21:54;;;;;;;;;;;;;;;5.37;74.34;99906.97;4873427;29;4646;-79
2022/11/22 11:24:21;;;;;;;;;;;;;;;5.36;74.32;99924.03;4859942;29;4653;-79
2022/11/22 11:26:47;;;;;;;;;;;;;;;5.34;74.64;99920.72;4877165;29;4718;-79
2022/11/22 11:29:14;;;;;;;;;;;;;;;5.38;74.23;99916.59;4875775;29;4642;-80
2022/11/22 11:31:40;;;;;;;;;;;;;;;5.34;74.25;99899.34;4878282;29;4330;-79
2022/11/22 11:34:07;;;;;;;;;;;;;;;5.35;74.35;99892.97;4876663;29;4626;-78
2022/11/22 11:36:33;;;;;;;;;;;;;;;5.31;74.46;99889.91;4872424;29;4615;-80
2022/11/22 11:39:00;;;;;;;;;;;;;;;5.40;74.28;99903.88;4873000;29;4814;-79
2022/11/22 11:41:26;;;;;;;;;;;;;;;5.68;72.92;99901.91;4873841;29;4823;-79
2022/11/22 11:43:53;;;;;;;;;;;;;;;5.47;73.98;99894.88;4862988;29;4682;-80
2022/11/22 11:46:19;;;;;;;;;;;;;;;5.28;74.67;99903.66;4875164;29;4786;-79
2022/11/22 11:48:49;;;;;;;;;;;;;;;5.29;74.54;99891.94;4875089;29;4797;-79
2022/11/22 11:51:16;;;;;;;;;;;;;;;5.37;74.50;99905.13;4862787;29;4632;-79
2022/11/22 11:53:42;;;;;;;;;;;;;;;5.30;74.68;99906.94;4862461;29;4720;-80
2022/11/22 11:56:09;;;;;;;;;;;;;;;5.31;74.41;99910.44;4860712;29;4735;-80
2022/11/22 11:58:35;;;;;;;;;;;;;;;5.29;74.31;99902.63;4859388;29;4757;-80
2022/11/22 12:01:02;;;;;;;;;;;;;;;5.33;74.64;99901.22;4863896;29;4477;-80
2022/11/22 12:03:29;;;;;;;;;;;;;;;5.33;74.66;99911.88;4874804;29;4666;-79
2022/11/22 12:05:55;;;;;;;;;;;;;;;5.33;74.64;99911.06;4874643;29;4706;-79
2022/11/22 12:08:22;;;;;;;;;;;;;;;5.32;74.65;99912.91;4871436;29;4703;-80
2022/11/22 12:10:49;;;;;;;;;;;;;;;5.31;74.64;99916.59;4862395;29;4705;-80
2022/11/22 12:13:17;;;;;;;;;;;;;;;5.29;74.72;99918.63;4874386;29;4206;-79
2022/11/22 12:15:43;;;;;;;;;;;;;;;5.36;74.47;99921.34;4871705;29;4647;-80
2022/11/22 12:18:10;;;;;;;;;;;;;;;5.43;74.37;99914.16;4861239;29;4709;-79
2022/11/22 12:20:36;;;;;;;;;;;;;;;5.40;74.45;99923.41;4876414;29;4254;-80
2022/11/22 12:23:03;;;;;;;;;;;;;;;5.31;74.61;99921.13;4868154;29;4696;-80
2022/11/22 12:25:30;;;;;;;;;;;;;;;5.35;74.40;99920.50;4873731;29;4762;-80
2022/11/22 12:27:56;;;;;;;;;;;;;;;5.30;74.70;99912.28;4875701;29;4620;-79
2022/11/22 12:30:23;;;;;;;;;;;;;;;5.40;74.33;99918.06;4864482;29;4652;-81
2022/11/22 12:32:49;;;;;;;;;;;;;;;5.45;74.12;99920.97;4879756;29;4700;-79
2022/11/22 12:35:16;;;;;;;;;;;;;;;5.34;74.73;99920.72;4856977;29;4717;-80
2022/11/22 12:37:43;;;;;;;;;;;;;;;5.38;74.25;99922.81;4871377;29;4679;-79
2022/11/22 12:40:10;;;;;;;;;;;;;;;5.36;74.70;99916.00;4872808;29;4619;-78
2022/11/22 12:42:36;;;;;;;;;;;;;;;5.37;74.48;99915.78;4875262;29;4643;-78
2022/11/22 12:45:03;;;;;;;;;;;;;;;5.34;74.58;99912.72;4861443;29;4933;-79
2022/11/22 12:47:29;;;;;;;;;;;;;;;5.38;74.38;99913.94;4874004;29;4647;-80
2022/11/22 12:49:56;;;;;;;;;;;;;;;5.32;74.71;99910.22;4874530;29;4206;-80
2022/11/22 12:52:22;;;;;;;;;;;;;;;5.38;74.61;99916.59;4871656;29;4643;-80
2022/11/22 12:54:49;;;;;;;;;;;;;;;5.39;74.29;99910.25;4877147;29;4633;-80
2022/11/22 12:57:16;;;;;;;;;;;;;;;5.37;74.50;99917.66;4875981;29;4730;-79
2022/11/22 12:59:44;;;;;;;;;;;;;;;5.35;74.65;99915.16;4865680;29;4647;-80
2022/11/22 13:02:11;;;;;;;;;;;;;;;5.35;74.74;99917.84;4872158;29;4666;-79
2022/11/22 13:04:37;;;;;;;;;;;;;;;5.37;74.66;99917.66;4874178;29;4686;-81
2022/11/22 13:07:04;;;;;;;;;;;;;;;5.51;74.29;99921.19;4856838;29;4974;-80
2022/11/22 13:09:30;;;;;;;;;;;;;;;5.43;74.21;99919.50;4860456;29;4730;-79
2022/11/22 13:11:57;;;;;;;;;;;;;;;5.42;74.33;99924.03;4873246;29;4721;-78
2022/11/22 13:14:23;;;;;;;;;;;;;;;5.39;74.60;99920.94;4857809;29;4674;-79
2022/11/22 13:16:52;;;;;;;;;;;;;;;5.34;74.59;99924.22;4860328;29;4695;-79
2022/11/22 13:19:19;;;;;;;;;;;;;;;5.35;74.74;99933.84;4873976;29;4764;-80
2022/11/22 13:21:46;;;;;;;;;;;;;;;5.51;74.00;99929.19;4872484;29;4748;-79
2022/11/22 13:24:12;;;;;;;;;;;;;;;5.44;74.42;99937.16;4874220;29;4724;-79
2022/11/22 13:26:39;;;;;;;;;;;;;;;5.37;74.50;99931.81;4872247;29;4948;-79
2022/11/22 13:29:05;;;;;;;;;;;;;;;5.40;74.63;99935.94;4874000;29;4695;-79
2022/11/22 13:31:32;;;;;;;;;;;;;;;5.30;74.83;99933.66;4872726;29;4626;-79
2022/11/22 13:33:59;;;;;;;;;;;;;;;5.33;74.66;99929.75;4874516;29;4610;-79
2022/11/22 13:36:25;;;;;;;;;;;;;;;5.34;74.59;99929.53;4872539;29;4741;-80
2022/11/22 13:38:52;;;;;;;;;;;;;;;5.36;74.71;99929.38;4862407;29;4695;-81
2022/11/22 13:41:18;;;;;;;;;;;;;;;5.33;74.79;99927.09;4852884;29;4768;-82
2022/11/22 13:43:45;;;;;;;;;;;;;;;5.32;74.82;99931.59;4878729;29;4802;-80
2022/11/22 13:46:11;;;;;;;;;;;;;;;5.32;75.03;99930.78;4875198;29;4684;-84
2022/11/22 13:48:42;;;;;;;;;;;;;;;5.33;74.84;99937.78;4875056;29;4700;-81
2022/11/22 13:51:10;;;;;;;;;;;;;;;5.31;74.76;99937.16;4873137;29;4340;-82
2022/11/22 13:53:37;;;;;;;;;;;;;;;5.23;75.18;99947.00;4882295;29;4643;-83
2022/11/22 13:56:04;;;;;;;;;;;;;;;5.37;74.63;99934.50;4879191;29;4737;-83
2022/11/22 13:58:30;;;;;;;;;;;;;;;5.35;74.57;99944.53;4877871;29;4651;-83
2022/11/22 14:00:58;;;;;;;;;;;;;;;5.34;74.79;99956.25;4878264;29;4957;-81
2022/11/22 14:03:25;;;;;;;;;;;;;;;5.27;75.13;99955.41;4878243;29;4290;-81
2022/11/22 14:05:51;;;;;;;;;;;;;;;5.23;75.20;99948.81;4875415;29;4761;-81
2022/11/22 14:08:18;;;;;;;;;;;;;;;5.34;74.71;99955.44;4863033;29;4638;-82
2022/11/22 14:10:44;;;;;;;;;;;;;;;5.35;74.73;99960.56;4877051;29;4765;-81
2022/11/22 14:13:11;;;;;;;;;;;;;;;5.35;74.75;99959.75;4873682;29;4777;-81
2022/11/22 14:15:39;;;;;;;;;;;;;;;5.37;74.80;99963.03;4879167;29;4639;-81
2022/11/22 14:18:05;;;;;;;;;;;;;;;5.34;74.79;99966.94;4880939;29;4662;-82
2022/11/22 14:20:32;;;;;;;;;;;;;;;5.39;74.87;99964.50;4877096;29;4654;-81
2022/11/22 14:22:59;;;;;;;;;;;;;;;5.29;75.00;99965.88;4860021;29;4491;-81
2022/11/22 14:25:26;;;;;;;;;;;;;;;5.30;74.99;99971.03;4879475;29;4456;-81
2022/11/22 14:27:52;;;;;;;;;;;;;;;5.30;75.06;99971.03;4874542;29;4694;-81
2022/11/22 14:30:19;;;;;;;;;;;;;;;5.31;74.79;99975.34;4876579;29;4212;-84
2022/11/22 14:32:46;;;;;;;;;;;;;;;5.28;75.17;99975.75;4859696;29;4648;-83
2022/11/22 14:35:12;;;;;;;;;;;;;;;5.30;74.99;99970.22;4864127;29;4666;-82
2022/11/22 14:37:39;;;;;;;;;;;;;;;5.24;75.08;99975.31;4874831;29;4646;-83
2022/11/22 14:40:05;;;;;;;;;;;;;;;5.23;75.25;99976.34;4859032;29;4816;-82
2022/11/22 14:42:32;;;;;;;;;;;;;;;5.22;75.25;99979.22;4859001;29;4817;-82
2022/11/22 14:44:58;;;;;;;;;;;;;;;5.20;75.39;99974.06;4877146;29;4621;-82
2022/11/22 14:47:25;;;;;;;;;;;;;;;5.24;75.34;99979.84;4857037;29;4711;-81
2022/11/22 14:49:51;;;;;;;;;;;;;;;5.23;75.35;99987.03;4864480;29;4735;-81
2022/11/22 14:52:18;;;;;;;;;;;;;;;5.19;75.44;99985.78;4861382;29;4647;-84
2022/11/22 14:54:44;;;;;;;;;;;;;;;5.18;75.36;99980.66;4876198;29;4645;-80
2022/11/22 14:57:11;;;;;;;;;;;;;;;5.15;75.45;99991.72;4876205;29;4638;-83
2022/11/22 14:59:37;;;;;;;;;;;;;;;5.18;75.41;100000.16;4857222;29;4828;-83
2022/11/22 15:02:04;;;;;;;;;;;;;;;5.16;75.58;99999.50;4875048;29;5114;-84
2022/11/22 15:04:31;;;;;;;;;;;;;;;5.14;75.66;99998.06;4859737;29;4646;-83
2022/11/22 15:06:57;;;;;;;;;;;;;;;5.15;75.45;99994.38;4864549;29;4457;-82
2022/11/22 15:09:24;;;;;;;;;;;;;;;5.15;75.43;100005.88;4877256;29;4668;-84
2022/11/22 15:11:50;;;;;;;;;;;;;;;5.22;75.11;100006.72;4864977;29;4417;-83
2022/11/22 15:14:17;;;;;;;;;;;;;;;5.18;75.42;100008.16;4877198;29;4971;-81
2022/11/22 15:16:43;;;;;;;;;;;;;;;5.19;75.29;100006.31;4856139;29;4691;-81
2022/11/22 15:19:10;;;;;;;;;;;;;;;5.15;75.61;100011.22;4876226;29;4636;-82
2022/11/22 15:21:37;;;;;;;;;;;;;;;5.24;75.32;100011.88;4875388;29;4769;-82
2022/11/22 15:24:04;;;;;;;;;;;;;;;5.20;75.38;100013.28;4860796;29;4681;-79
2022/11/22 15:26:30;;;;;;;;;;;;;;;5.20;75.37;100018.63;4860237;29;4692;-83
2022/11/22 15:28:57;;;;;;;;;;;;;;;5.27;75.14;100016.00;4875847;29;4649;-82
2022/11/22 15:31:23;;;;;;;;;;;;;;;5.21;75.30;100014.94;4876181;29;4701;-82
2022/11/22 15:33:50;;;;;;;;;;;;;;;5.17;75.51;100013.69;4877016;29;4694;-81
2022/11/22 15:36:16;;;;;;;;;;;;;;;5.22;75.24;100013.91;4859014;29;5244;-82
2022/11/22 15:38:43;;;;;;;;;;;;;;;5.24;75.22;100012.72;4864885;29;4644;-82
2022/11/22 15:41:09;;;;;;;;;;;;;;;5.21;75.15;100015.78;4869935;29;4687;-84
2022/11/22 15:43:36;;;;;;;;;;;;;;;5.22;75.21;100006.72;4875162;29;4641;-80
2022/11/22 15:46:03;;;;;;;;;;;;;;;5.19;75.34;100006.31;4877257;29;4827;-80
2022/11/22 15:48:29;;;;;;;;;;;;;;;5.24;75.12;100006.53;4863492;29;4736;-81
2022/11/22 15:50:56;;;;;;;;;;;;;;;5.30;75.01;100007.59;4875888;29;4717;-82
2022/11/22 15:53:22;;;;;;;;;;;;;;;5.26;75.04;100012.50;4876569;29;4785;-81
2022/11/22 15:55:49;;;;;;;;;;;;;;;5.23;75.09;100013.75;4876751;29;4757;-83
2022/11/22 15:58:15;;;;;;;;;;;;;;;5.17;75.37;100011.84;4860307;29;4780;-80
2022/11/22 16:00:42;;;;;;;;;;;;;;;5.20;75.47;100026.63;4859768;29;4802;-84
2022/11/22 16:03:08;;;;;;;;;;;;;;;5.19;75.46;100017.81;4863395;29;4512;-82
2022/11/22 16:05:35;;;;;;;;;;;;;;;5.22;75.17;100020.09;4875212;29;4679;-82
2022/11/22 16:08:01;;;;;;;;;;;;;;;5.20;75.37;100021.28;4859521;29;4639;-81
2022/11/22 16:10:30;;;;;;;;;;;;;;;5.24;75.25;100025.25;4872619;29;4683;-83
2022/11/22 16:12:56;;;;;;;;;;;;;;;5.22;75.28;100037.94;4865090;29;4627;-81
2022/11/22 16:15:23;;;;;;;;;;;;;;;5.16;75.50;100026.22;4874399;29;4808;-83
2022/11/22 16:17:49;;;;;;;;;;;;;;;5.12;75.71;100026.81;4876091;29;4717;-82
2022/11/22 16:20:16;;;;;;;;;;;;;;;5.13;75.60;100026.59;4873681;29;4616;-82
2022/11/22 16:22:43;;;;;;;;;;;;;;;5.17;75.46;100025.19;4860557;29;4672;-82
2022/11/22 16:25:09;;;;;;;;;;;;;;;5.23;75.27;100037.78;4877942;29;4658;-82
2022/11/22 16:27:36;;;;;;;;;;;;;;;5.20;75.33;100038.13;4876444;29;4560;-82
2022/11/22 16:30:02;;;;;;;;;;;;;;;5.22;75.22;100028.09;4855916;29;4531;-84
2022/11/22 16:32:29;;;;;;;;;;;;;;;5.15;75.52;100035.25;4876743;29;4550;-81